Terminal Aerodrome Forecast
Issued by NWS Wilmington, OH

Current Version | Previous Version | Graphics & Text | Print | Product List | Glossary On
Versions: 1 2 3 4 5 6 7 8 9 10 11 12 13 14 15 16 17 18 19 20 21 22 23 24 25
720
FTUS41 KILN 251400 AAA
TAFCVG
TAF AMD
KCVG 251400Z 2514/2618 22007KT P6SM SCT015
     FM251430 22009KT P6SM BKN015
     FM251600 22010KT P6SM BKN022
     FM251800 23010KT P6SM SCT040
     FM260000 27006KT P6SM SCT250
     FM260600 33004KT P6SM SCT250
     FM261200 02004KT P6SM SCT250
     FM261500 09004KT P6SM SCT035=

USA.gov is the U.S. government's official web portal to all federal, state and local government web resources and services.